Time;durP1;ratioP1;P1;durP2;ratioP2;P2;SDS_P1;SDS_P2;PMS_P1;PMS_P2;Temp;Humidity;BMP_temperature;BMP_pressure;BME280_temperature;BME280_humidity;BME280_pressure;Samples;Min_cycle;Max_cycle;Signal;HPM_P1;HPM_P2
2023/06/22 00:02:23;;;;;;;30.75;23.85;;;17.70;99.90;;;;;;5054467;28;20055;-90
2023/06/22 00:04:49;;;;;;;26.92;23.90;;;17.80;99.90;;;;;;5049118;28;20075;-90
2023/06/22 00:07:14;;;;;;;28.02;24.83;;;17.30;99.90;;;;;;5054670;28;20048;-90
2023/06/22 00:09:40;;;;;;;29.58;24.67;;;17.70;99.90;;;;;;5053376;28;20036;-89
2023/06/22 00:12:06;;;;;;;27.38;23.20;;;17.70;99.90;;;;;;5050009;28;20033;-89
2023/06/22 00:14:32;;;;;;;30.88;26.25;;;17.60;99.90;;;;;;5053050;28;20043;-90
2023/06/22 00:17:04;;;;;;;28.77;25.00;;;17.60;99.90;;;;;;5050201;28;20044;-90
2023/06/22 00:19:29;;;;;;;33.22;26.60;;;17.70;99.90;;;;;;5055385;28;20048;-89
2023/06/22 00:21:55;;;;;;;30.67;26.20;;;17.80;99.90;;;;;;5053678;28;20064;-88
2023/06/22 00:24:21;;;;;;;31.38;26.77;;;18.10;99.90;;;;;;5053475;28;20400;-91
2023/06/22 00:26:48;;;;;;;36.13;27.55;;;17.90;99.90;;;;;;5052382;28;20059;-91
2023/06/22 00:29:14;;;;;;;31.67;25.95;;;17.60;99.90;;;;;;5056290;28;20048;-91
2023/06/22 00:31:39;;;;;;;29.88;26.00;;;17.80;99.90;;;;;;5054954;28;20041;-91
2023/06/22 00:34:06;;;;;;;36.30;29.58;;;18.10;99.90;;;;;;5071973;28;20820;-89
2023/06/22 00:36:32;;;;;;;34.42;29.20;;;17.50;99.90;;;;;;5056811;28;20063;-89
2023/06/22 00:39:01;;;;;;;33.47;27.88;;;17.40;99.90;;;;;;5056085;28;20048;-89
2023/06/22 00:41:28;;;;;;;33.53;28.48;;;17.40;99.90;;;;;;5052499;28;20059;-90
2023/06/22 00:43:54;;;;;;;35.97;29.60;;;17.50;99.90;;;;;;5043910;28;20403;-89
2023/06/22 00:46:22;;;;;;;35.85;27.85;;;17.40;99.90;;;;;;5052330;28;20049;-90
2023/06/22 00:48:48;;;;;;;32.67;26.63;;;17.60;99.90;;;;;;5053917;28;20480;-90
2023/06/22 00:51:14;;;;;;;35.38;30.17;;;18.40;99.90;;;;;;5055746;28;20131;-90
2023/06/22 00:53:40;;;;;;;34.47;29.88;;;17.30;99.90;;;;;;5055496;28;20116;-90
2023/06/22 00:56:08;;;;;;;38.88;29.58;;;17.30;99.90;;;;;;5054191;28;20041;-90
2023/06/22 00:58:35;;;;;;;29.00;25.88;;;18.00;99.90;;;;;;5072018;28;20040;-90
2023/06/22 01:01:02;;;;;;;37.35;28.15;;;17.60;99.90;;;;;;5073042;28;20045;-89
2023/06/22 01:03:30;;;;;;;36.00;29.58;;;17.30;99.90;;;;;;5045170;28;20055;-90
2023/06/22 01:06:19;;;;;;;35.97;29.38;;;18.30;99.90;;;;;;5054436;28;20040;-89
2023/06/22 01:09:08;;;;;;;31.17;26.75;;;17.30;99.90;;;;;;5051691;28;20040;-89
2023/06/22 01:11:42;;;;;;;40.58;31.27;;;17.30;99.90;;;;;;5056129;28;20109;-90
2023/06/22 01:14:35;;;;;;;36.17;29.27;;;17.20;99.90;;;;;;5072057;28;20053;-89
2023/06/22 01:17:01;;;;;;;35.50;29.35;;;17.20;99.90;;;;;;5051978;28;20052;-90
2023/06/22 01:19:55;;;;;;;37.00;30.48;;;17.20;99.90;;;;;;5052093;28;20048;-89
2023/06/22 01:22:24;;;;;;;38.20;29.85;;;17.90;99.90;;;;;;5039454;28;20041;-89
2023/06/22 01:25:08;;;;;;;41.60;30.65;;;17.20;99.90;;;;;;5071755;28;20095;-90
2023/06/22 01:27:47;;;;;;;35.38;30.50;;;17.20;99.90;;;;;;5051004;28;20060;-90
2023/06/22 01:30:15;;;;;;;33.65;27.42;;;17.20;99.90;;;;;;5046865;28;20054;-89
2023/06/22 01:32:42;;;;;;;35.00;28.73;;;18.10;99.90;;;;;;5070903;28;20036;-90
2023/06/22 01:35:09;;;;;;;37.60;30.25;;;17.20;99.90;;;;;;5070010;28;20040;-91
2023/06/22 01:37:39;;;;;;;35.97;30.25;;;17.90;99.90;;;;;;5049689;28;20045;-91
2023/06/22 01:40:08;;;;;;;36.58;27.90;;;17.80;99.90;;;;;;5035866;28;20056;-89
2023/06/22 01:42:34;;;;;;;38.78;30.73;;;17.10;99.90;;;;;;5044065;28;20044;-89
2023/06/22 01:45:02;;;;;;;35.45;28.60;;;17.80;99.90;;;;;;5055498;28;20075;-90
2023/06/22 01:47:28;;;;;;;32.17;27.00;;;17.10;99.90;;;;;;5051896;28;20429;-90
2023/06/22 01:49:54;;;;;;;36.17;29.35;;;17.20;99.90;;;;;;5051611;28;20139;-89
2023/06/22 01:52:21;;;;;;;35.08;27.38;;;18.00;99.90;;;;;;5054046;28;20037;-90
2023/06/22 01:54:48;;;;;;;33.05;28.85;;;17.00;99.90;;;;;;5071340;28;20044;-89
2023/06/22 01:57:14;;;;;;;29.52;26.23;;;17.00;99.90;;;;;;5054365;28;20469;-89
2023/06/22 02:00:04;;;;;;;30.45;26.50;;;17.80;99.90;;;;;;5070623;28;20473;-89
2023/06/22 02:02:39;;;;;;;33.53;27.42;;;17.00;99.90;;;;;;5051107;28;20075;-90
2023/06/22 02:05:12;;;;;;;33.95;28.42;;;16.90;99.90;;;;;;5053015;28;20105;-90
2023/06/22 02:08:06;;;;;;;32.15;27.92;;;16.90;99.90;;;;;;5052903;28;20508;-90
2023/06/22 02:10:34;;;;;;;35.97;29.50;;;17.20;99.90;;;;;;5054768;28;20059;-90
2023/06/22 02:13:02;;;;;;;31.95;26.60;;;17.70;99.90;;;;;;5053306;28;20032;-89
2023/06/22 02:15:28;;;;;;;31.50;26.40;;;17.50;99.90;;;;;;5054419;28;20314;-90
2023/06/22 02:17:54;;;;;;;31.65;27.65;;;17.30;99.90;;;;;;5049267;28;20049;-90
2023/06/22 02:20:20;;;;;;;31.42;27.95;;;17.50;99.90;;;;;;5034032;28;20051;-89
2023/06/22 02:22:46;;;;;;;33.83;28.25;;;16.80;99.90;;;;;;5043412;28;20040;-90
2023/06/22 02:25:12;;;;;;;34.75;28.27;;;17.30;99.90;;;;;;5071282;28;20769;-91
2023/06/22 02:27:40;;;;;;;36.58;28.60;;;17.70;99.90;;;;;;5053714;28;20048;-90
2023/06/22 02:30:09;;;;;;;35.70;28.60;;;16.80;99.90;;;;;;5053697;28;20111;-91
2023/06/22 02:32:36;;;;;;;35.72;28.52;;;16.70;99.90;;;;;;5051741;28;20044;-91
2023/06/22 02:35:09;;;;;;;37.47;29.60;;;17.20;99.90;;;;;;5053001;28;20186;-90
2023/06/22 02:37:44;;;;;;;35.28;29.50;;;17.40;99.90;;;;;;5070763;28;20040;-90
2023/06/22 02:40:10;;;;;;;35.70;29.23;;;16.70;99.90;;;;;;5054080;28;20448;-88
2023/06/22 02:42:37;;;;;;;33.50;28.60;;;16.70;99.90;;;;;;5053497;28;20041;-88
2023/06/22 02:45:04;;;;;;;36.65;28.27;;;17.00;99.90;;;;;;5055139;28;20127;-90
2023/06/22 02:47:30;;;;;;;30.88;26.15;;;16.70;99.90;;;;;;5050929;28;20049;-91
2023/06/22 02:49:56;;;;;;;34.35;28.95;;;17.50;99.90;;;;;;5048963;28;20132;-89
2023/06/22 02:52:23;;;;;;;33.45;28.15;;;17.10;99.90;;;;;;5042451;28;20044;-90
2023/06/22 02:54:50;;;;;;;32.15;27.35;;;16.90;99.90;;;;;;5054940;28;20050;-90
2023/06/22 02:57:16;;;;;;;29.52;26.10;;;17.00;99.90;;;;;;5047196;28;20049;-89
2023/06/22 02:59:44;;;;;;;34.10;29.08;;;16.90;99.90;;;;;;5050960;28;20409;-89
2023/06/22 03:02:11;;;;;;;30.27;26.30;;;16.90;99.90;;;;;;5046892;28;20067;-89
2023/06/22 03:04:37;;;;;;;31.67;28.27;;;16.10;99.90;;;;;;5051411;28;20059;-87
2023/06/22 03:07:03;;;;;;;32.25;27.25;;;16.50;99.90;;;;;;5049680;28;20076;-89
2023/06/22 03:09:29;;;;;;;31.63;26.38;;;16.40;99.90;;;;;;5039203;28;20056;-90
2023/06/22 03:11:55;;;;;;;35.88;26.67;;;16.40;99.90;;;;;;5053796;28;20730;-90
2023/06/22 03:14:21;;;;;;;32.55;26.83;;;16.30;99.90;;;;;;5053836;28;20074;-89
2023/06/22 03:16:51;;;;;;;30.42;26.15;;;16.60;99.90;;;;;;5053162;28;21500;-89
2023/06/22 03:19:21;;;;;;;30.42;26.48;;;16.30;99.90;;;;;;5060189;28;20041;-89
2023/06/22 03:21:47;;;;;;;35.65;28.48;;;16.50;99.90;;;;;;5053256;28;20392;-89
2023/06/22 03:24:12;;;;;;;30.58;27.23;;;16.30;99.90;;;;;;5052836;28;20051;-90
2023/06/22 03:26:38;;;;;;;28.08;24.50;;;16.30;99.90;;;;;;5068776;28;20052;-90
2023/06/22 03:29:04;;;;;;;30.20;25.95;;;16.30;99.90;;;;;;5066135;28;20135;-90
2023/06/22 03:31:31;;;;;;;28.38;24.55;;;16.40;99.90;;;;;;5069667;28;20048;-91
2023/06/22 03:33:57;;;;;;;29.58;25.92;;;16.20;99.90;;;;;;5048242;28;20047;-89
2023/06/22 03:36:22;;;;;;;29.45;25.58;;;16.20;99.90;;;;;;5060213;28;20041;-89
2023/06/22 03:38:49;;;;;;;29.80;25.70;;;16.80;99.90;;;;;;5052935;28;20068;-90
2023/06/22 03:41:16;;;;;;;30.50;24.55;;;16.30;99.90;;;;;;5051139;28;20041;-88
2023/06/22 03:43:42;;;;;;;29.40;26.23;;;16.60;99.90;;;;;;5052552;28;20044;-90
2023/06/22 03:46:08;;;;;;;32.20;26.30;;;16.20;99.90;;;;;;5052480;28;20049;-89
2023/06/22 03:48:33;;;;;;;28.45;24.60;;;16.30;99.90;;;;;;5053067;28;20045;-89
2023/06/22 03:51:03;;;;;;;28.13;23.80;;;17.20;99.90;;;;;;5052670;28;20577;-89
2023/06/22 03:53:29;;;;;;;29.70;26.50;;;16.70;99.90;;;;;;5054638;28;20044;-91
2023/06/22 03:55:55;;;;;;;28.30;25.23;;;16.40;99.90;;;;;;5054695;28;20851;-89
2023/06/22 03:58:24;;;;;;;31.45;25.85;;;16.30;99.90;;;;;;5055965;28;20043;-90
2023/06/22 04:00:54;;;;;;;29.85;25.42;;;16.90;99.90;;;;;;5056474;28;20094;-91
2023/06/22 04:03:20;;;;;;;31.88;25.13;;;16.40;99.90;;;;;;5072220;28;20032;-90
2023/06/22 04:05:46;;;;;;;29.90;24.95;;;16.40;99.90;;;;;;5070922;28;20053;-89
2023/06/22 04:08:13;;;;;;;28.20;23.35;;;15.90;99.90;;;;;;5052280;28;20064;-87
2023/06/22 04:10:39;;;;;;;26.30;22.60;;;16.50;99.90;;;;;;5046511;28;20048;-88
2023/06/22 04:13:05;;;;;;;27.38;24.13;;;16.50;99.90;;;;;;5053042;28;20044;-89
2023/06/22 04:15:30;;;;;;;29.58;25.00;;;16.50;99.90;;;;;;5050335;28;20462;-89
2023/06/22 04:17:57;;;;;;;29.23;24.70;;;16.50;99.90;;;;;;5042815;28;20048;-90
2023/06/22 04:20:25;;;;;;;26.60;23.77;;;16.60;99.90;;;;;;5047407;28;20044;-89
2023/06/22 04:22:51;;;;;;;29.00;23.90;;;16.60;99.90;;;;;;5061741;28;20565;-89
2023/06/22 04:25:17;;;;;;;30.15;25.95;;;16.60;99.90;;;;;;5053493;28;20048;-90
2023/06/22 04:27:43;;;;;;;32.42;26.05;;;16.60;99.90;;;;;;5051850;28;20424;-87
2023/06/22 04:30:09;;;;;;;29.42;25.55;;;16.60;99.90;;;;;;5051481;28;20116;-88
2023/06/22 04:32:39;;;;;;;29.15;25.85;;;16.60;99.90;;;;;;5064089;28;20045;-90
2023/06/22 04:35:06;;;;;;;29.40;26.00;;;17.40;99.90;;;;;;5048096;28;21230;-90
2023/06/22 04:37:34;;;;;;;34.50;26.23;;;16.70;99.90;;;;;;5052038;28;20048;-90
2023/06/22 04:40:04;;;;;;;31.02;26.35;;;16.70;99.90;;;;;;5055163;28;20060;-89
2023/06/22 04:42:30;;;;;;;29.85;26.42;;;15.70;99.90;;;;;;5053544;28;20186;-88
2023/06/22 04:44:55;;;;;;;30.55;26.80;;;16.70;99.90;;;;;;5068839;28;20140;-89
2023/06/22 04:47:21;;;;;;;33.92;27.50;;;16.70;99.90;;;;;;5049843;28;20175;-89
2023/06/22 04:49:47;;;;;;;28.58;24.98;;;16.70;99.90;;;;;;5048587;28;20084;-88
2023/06/22 04:52:13;;;;;;;34.58;28.88;;;16.80;99.90;;;;;;5052151;28;20102;-89
2023/06/22 04:54:47;;;;;;;37.45;29.77;;;16.40;99.90;;;;;;5052076;28;20040;-87
2023/06/22 04:57:15;;;;;;;37.00;29.63;;;17.40;99.90;;;;;;5053564;28;20048;-89
2023/06/22 04:59:42;;;;;;;35.28;28.45;;;16.50;99.90;;;;;;5050009;28;20037;-88
2023/06/22 05:02:08;;;;;;;37.30;30.40;;;17.20;99.90;;;;;;5062243;28;20044;-90
2023/06/22 05:04:40;;;;;;;33.72;29.10;;;17.00;99.90;;;;;;5038813;28;20049;-91
2023/06/22 05:07:06;;;;;;;38.03;29.20;;;18.00;99.90;;;;;;5062558;28;20041;-90
2023/06/22 05:09:36;;;;;;;36.80;30.73;;;17.00;99.90;;;;;;5055938;28;20483;-90
2023/06/22 05:12:02;;;;;;;36.63;30.15;;;17.80;99.90;;;;;;5055547;28;20055;-90
2023/06/22 05:14:29;;;;;;;39.38;31.23;;;17.10;99.90;;;;;;5072732;28;20052;-88
2023/06/22 05:16:58;;;;;;;38.53;31.27;;;17.60;99.90;;;;;;5052373;28;20052;-89
2023/06/22 05:19:25;;;;;;;38.13;30.90;;;17.80;99.90;;;;;;5051949;28;20040;-90
2023/06/22 05:21:50;;;;;;;37.78;30.13;;;16.90;99.90;;;;;;5051055;28;20114;-88
2023/06/22 05:24:16;;;;;;;40.28;31.67;;;18.00;99.90;;;;;;5053309;28;20454;-88
2023/06/22 05:26:41;;;;;;;35.90;29.67;;;17.40;99.90;;;;;;5054208;28;20041;-90
2023/06/22 05:29:07;;;;;;;38.22;29.98;;;18.00;99.90;;;;;;5056401;28;20058;-90
2023/06/22 05:31:36;;;;;;;33.28;29.67;;;19.40;99.90;;;;;;5056315;28;20071;-91
2023/06/22 05:34:04;;;;;;;35.67;30.08;;;19.70;99.90;;;;;;5057043;28;20033;-90
2023/06/22 05:36:35;;;;;;;34.08;28.40;;;19.90;99.90;;;;;;5056722;28;20036;-88
2023/06/22 05:39:13;;;;;;;31.63;28.25;;;20.70;99.90;;;;;;5072993;28;20048;-88
2023/06/22 05:41:42;;;;;;;29.90;26.70;;;21.30;99.90;;;;;;5058338;28;20490;-89
2023/06/22 05:44:11;;;;;;;31.27;27.20;;;22.10;99.90;;;;;;5054639;28;20121;-91
2023/06/22 05:46:40;;;;;;;30.92;25.60;;;22.80;99.90;;;;;;5056756;28;20048;-91
2023/06/22 05:49:05;;;;;;;28.17;25.17;;;22.70;99.90;;;;;;5057402;28;20049;-92
2023/06/22 05:51:35;;;;;;;26.75;23.85;;;23.10;99.90;;;;;;5057489;28;20049;-90
2023/06/22 05:54:01;;;;;;;29.70;24.60;;;23.30;99.90;;;;;;5056408;28;20040;-92
2023/06/22 05:56:29;;;;;;;25.70;23.00;;;23.30;99.90;;;;;;5057828;28;20090;-92
2023/06/22 05:59:00;;;;;;;27.77;21.73;;;23.90;99.90;;;;;;5054524;28;20037;-91
2023/06/22 06:01:28;;;;;;;24.88;22.35;;;23.40;99.90;;;;;;5053817;28;20049;-90
2023/06/22 06:03:54;;;;;;;22.92;20.40;;;23.30;99.90;;;;;;5037057;28;20045;-88
2023/06/22 06:06:28;;;;;;;23.85;21.45;;;23.70;99.90;;;;;;5054340;28;20408;-90
2023/06/22 06:08:54;;;;;;;22.48;20.08;;;23.70;99.90;;;;;;5070752;28;20044;-89
2023/06/22 06:11:20;;;;;;;21.58;19.33;;;23.90;99.90;;;;;;5052770;28;20055;-89
2023/06/22 06:13:46;;;;;;;20.52;18.42;;;23.90;99.90;;;;;;5068397;28;20041;-88
2023/06/22 06:16:11;;;;;;;20.13;18.02;;;23.70;99.90;;;;;;5066305;28;20048;-88
2023/06/22 06:18:37;;;;;;;23.42;19.63;;;23.90;99.90;;;;;;5050950;28;20118;-88
2023/06/22 06:21:03;;;;;;;19.77;17.67;;;24.30;99.90;;;;;;5051178;28;20068;-88
2023/06/22 06:23:28;;;;;;;21.45;18.33;;;24.10;99.90;;;;;;5067673;28;20181;-88
2023/06/22 06:25:54;;;;;;;19.23;16.80;;;24.40;99.90;;;;;;5067486;28;20420;-88
2023/06/22 06:28:20;;;;;;;19.00;16.15;;;24.60;99.90;;;;;;5067600;28;20052;-88
2023/06/22 06:30:47;;;;;;;16.80;14.95;;;24.80;99.90;;;;;;5062675;28;20044;-88
2023/06/22 06:33:13;;;;;;;18.33;16.38;;;25.30;99.90;;;;;;5067560;28;20408;-85
2023/06/22 06:35:38;;;;;;;17.98;16.10;;;25.30;99.90;;;;;;5066830;28;20044;-86
2023/06/22 06:38:04;;;;;;;16.50;14.90;;;24.30;99.90;;;;;;5069107;28;20059;-85
2023/06/22 06:40:29;;;;;;;16.58;14.07;;;24.00;99.90;;;;;;5067150;28;20051;-86
2023/06/22 06:42:55;;;;;;;14.02;12.52;;;23.90;99.90;;;;;;5068314;28;20557;-86
2023/06/22 06:45:22;;;;;;;14.30;12.35;;;23.40;99.90;;;;;;5067398;28;20053;-85
2023/06/22 06:47:49;;;;;;;14.32;12.65;;;23.00;99.90;;;;;;5068428;28;20060;-86
2023/06/22 06:50:16;;;;;;;13.25;11.88;;;22.90;99.90;;;;;;5050982;28;20060;-85
2023/06/22 06:52:41;;;;;;;12.95;11.70;;;23.20;99.90;;;;;;5052755;28;20075;-85
2023/06/22 06:55:11;;;;;;;15.00;10.50;;;23.00;99.90;;;;;;5066241;28;20471;-85
2023/06/22 06:57:41;;;;;;;11.25;9.98;;;22.80;99.90;;;;;;5069201;28;20101;-85
2023/06/22 07:00:11;;;;;;;12.10;10.70;;;22.70;99.90;;;;;;5067546;28;20474;-86
2023/06/22 07:02:39;;;;;;;13.30;9.68;;;22.60;99.90;;;;;;5067000;28;20047;-86
2023/06/22 07:05:05;;;;;;;9.98;8.98;;;23.10;99.90;;;;;;5065385;28;20047;-85
2023/06/22 07:07:31;;;;;;;10.55;9.48;;;22.90;99.90;;;;;;5066917;28;20036;-86
2023/06/22 07:09:57;;;;;;;10.18;9.10;;;23.10;99.90;;;;;;5049851;28;20040;-85
2023/06/22 07:12:22;;;;;;;10.45;9.35;;;23.10;99.90;;;;;;5066748;28;20048;-84
2023/06/22 07:14:48;;;;;;;11.35;9.00;;;23.00;99.90;;;;;;5066295;28;20505;-84
2023/06/22 07:17:14;;;;;;;10.48;9.38;;;23.20;99.90;;;;;;5065538;28;20045;-85
2023/06/22 07:19:40;;;;;;;11.25;10.07;;;23.40;99.90;;;;;;5049608;28;20052;-84
2023/06/22 07:22:05;;;;;;;9.60;8.55;;;23.40;99.90;;;;;;5065934;28;20044;-85
2023/06/22 07:24:32;;;;;;;10.65;9.55;;;23.70;99.90;;;;;;5067320;28;20085;-84
2023/06/22 07:26:58;;;;;;;9.85;8.18;;;23.30;99.90;;;;;;5065829;28;20048;-87
2023/06/22 07:29:24;;;;;;;8.68;7.50;;;23.40;99.90;;;;;;5054046;28;20052;-86
2023/06/22 07:31:56;;;;;;;9.10;8.20;;;23.90;99.90;;;;;;5069924;28;20752;-85
2023/06/22 07:34:22;;;;;;;11.18;6.82;;;24.20;99.90;;;;;;5066892;28;20045;-86
2023/06/22 07:36:47;;;;;;;7.20;6.50;;;23.70;99.90;;;;;;5050321;28;20049;-85
2023/06/22 07:39:14;;;;;;;8.30;6.97;;;23.90;99.90;;;;;;5070038;28;20044;-87
2023/06/22 07:41:43;;;;;;;7.75;6.72;;;24.30;99.90;;;;;;5053246;28;20041;-86
2023/06/22 07:44:09;;;;;;;9.90;7.55;;;23.90;99.90;;;;;;5070651;28;20052;-86
2023/06/22 07:46:34;;;;;;;9.30;6.75;;;23.60;99.90;;;;;;5069367;28;20059;-85
2023/06/22 07:49:01;;;;;;;6.57;5.95;;;23.80;99.90;;;;;;5049785;28;20109;-85
2023/06/22 07:51:27;;;;;;;7.75;7.03;;;24.10;99.90;;;;;;5049441;28;20064;-87
2023/06/22 07:53:52;;;;;;;7.30;6.60;;;24.30;99.90;;;;;;5055183;28;20040;-86
2023/06/22 07:56:21;;;;;;;7.30;6.57;;;23.60;99.90;;;;;;5066999;28;20045;-87
2023/06/22 07:58:47;;;;;;;9.90;7.60;;;23.60;99.90;;;;;;5072879;28;20036;-86
2023/06/22 08:01:16;;;;;;;7.22;6.47;;;23.60;99.90;;;;;;5069850;28;20032;-86
2023/06/22 08:03:42;;;;;;;6.95;6.25;;;23.50;99.90;;;;;;5063377;28;20060;-86
2023/06/22 08:06:09;;;;;;;6.68;5.90;;;23.50;99.90;;;;;;5051339;28;20507;-87
2023/06/22 08:08:38;;;;;;;8.45;6.57;;;24.20;99.90;;;;;;5053884;28;20048;-87
2023/06/22 08:11:04;;;;;;;8.68;7.28;;;23.80;99.90;;;;;;5085219;28;20044;-86
2023/06/22 08:13:31;;;;;;;8.55;6.82;;;24.10;99.90;;;;;;5072073;28;20071;-87
2023/06/22 08:15:57;;;;;;;7.97;7.20;;;23.90;99.90;;;;;;5054083;28;20048;-87
2023/06/22 08:18:23;;;;;;;8.70;7.90;;;24.30;99.90;;;;;;5072694;28;20761;-86
2023/06/22 08:20:49;;;;;;;10.13;6.65;;;23.80;99.90;;;;;;5070752;28;20791;-87
2023/06/22 08:23:15;;;;;;;8.93;6.57;;;23.70;99.90;;;;;;5070808;28;20056;-87
2023/06/22 08:25:40;;;;;;;7.63;6.90;;;23.80;99.90;;;;;;5069999;28;20052;-87
2023/06/22 08:28:07;;;;;;;8.07;6.97;;;23.90;99.90;;;;;;5072421;28;20054;-88
2023/06/22 08:30:32;;;;;;;7.78;6.85;;;24.30;99.90;;;;;;5059500;28;20044;-87
2023/06/22 08:32:58;;;;;;;7.82;7.07;;;24.80;99.90;;;;;;5068731;28;20064;-88
2023/06/22 08:35:24;;;;;;;8.80;7.90;;;24.30;99.90;;;;;;5051183;28;20048;-87
2023/06/22 08:37:52;;;;;;;7.47;6.68;;;24.40;99.90;;;;;;5080411;28;20055;-87
2023/06/22 08:40:19;;;;;;;8.13;7.18;;;24.20;99.90;;;;;;5053085;28;20085;-87
2023/06/22 08:42:46;;;;;;;7.70;6.80;;;24.30;99.90;;;;;;5070861;28;20106;-88
2023/06/22 08:45:12;;;;;;;9.15;7.15;;;24.30;99.90;;;;;;5070634;28;20052;-88
2023/06/22 08:47:38;;;;;;;7.32;6.60;;;24.40;99.90;;;;;;5070226;28;20054;-88
2023/06/22 08:50:06;;;;;;;8.50;7.60;;;24.50;99.90;;;;;;5054044;28;20044;-90
2023/06/22 08:52:32;;;;;;;8.10;7.00;;;24.30;99.90;;;;;;5040189;28;20041;-88
2023/06/22 08:55:00;;;;;;;7.03;5.65;;;24.50;99.90;;;;;;5065856;28;20049;-87
2023/06/22 08:57:26;;;;;;;8.63;6.63;;;24.40;99.90;;;;;;5034694;28;20039;-87
2023/06/22 08:59:52;;;;;;;7.35;6.65;;;24.70;99.90;;;;;;5053117;28;20075;-89
2023/06/22 09:02:19;;;;;;;7.32;6.43;;;25.30;99.90;;;;;;5053419;28;20059;-89
2023/06/22 09:04:46;;;;;;;8.00;7.03;;;24.80;99.90;;;;;;5068799;28;20044;-89
2023/06/22 09:07:11;;;;;;;7.60;6.80;;;25.00;99.90;;;;;;5069164;28;20056;-86
2023/06/22 09:09:37;;;;;;;6.82;5.32;;;24.70;99.90;;;;;;5069969;28;20621;-89
2023/06/22 09:12:04;;;;;;;6.03;5.43;;;24.90;99.90;;;;;;5069880;28;20037;-86
2023/06/22 09:14:29;;;;;;;6.85;6.13;;;25.20;99.90;;;;;;5052735;28;20094;-87
2023/06/22 09:16:55;;;;;;;6.88;6.18;;;25.20;99.70;;;;;;5052263;28;20152;-85
2023/06/22 09:19:20;;;;;;;6.47;5.88;;;25.40;99.40;;;;;;5068469;28;20322;-86
2023/06/22 09:21:46;;;;;;;7.03;6.30;;;25.40;99.30;;;;;;5070237;28;20439;-88
2023/06/22 09:24:12;;;;;;;8.02;7.22;;;25.30;98.70;;;;;;5051597;28;20491;-85
2023/06/22 09:26:37;;;;;;;8.90;6.30;;;25.10;98.30;;;;;;5069323;28;20079;-86
2023/06/22 09:29:05;;;;;;;7.75;6.68;;;25.10;98.60;;;;;;5049556;28;20041;-85
2023/06/22 09:31:31;;;;;;;7.57;6.20;;;25.30;98.90;;;;;;5066535;28;20056;-85
2023/06/22 09:33:56;;;;;;;8.05;6.65;;;25.10;98.60;;;;;;5067747;28;20047;-85
2023/06/22 09:36:22;;;;;;;6.78;5.63;;;24.70;98.40;;;;;;5068316;28;20404;-85
2023/06/22 09:38:49;;;;;;;7.60;6.40;;;25.20;98.70;;;;;;5067219;28;20062;-85
2023/06/22 09:41:15;;;;;;;9.40;7.50;;;25.40;98.10;;;;;;5067943;28;20071;-84
2023/06/22 09:43:41;;;;;;;71.32;11.85;;;25.20;97.20;;;;;;5068114;28;20066;-91
2023/06/22 09:46:07;;;;;;;9.63;6.25;;;25.10;96.90;;;;;;5050754;28;20045;-85
2023/06/22 09:48:32;;;;;;;6.88;5.63;;;25.40;97.30;;;;;;5069122;28;20147;-82
2023/06/22 09:50:58;;;;;;;6.88;6.20;;;25.20;97.40;;;;;;5065497;28;20040;-83
2023/06/22 09:53:23;;;;;;;8.38;7.57;;;25.30;97.30;;;;;;5067612;28;20132;-83
2023/06/22 09:55:49;;;;;;;9.20;7.22;;;25.70;96.90;;;;;;5068945;28;20048;-84
2023/06/22 09:58:14;;;;;;;10.07;7.43;;;25.10;96.80;;;;;;5068242;28;20063;-84
2023/06/22 10:00:41;;;;;;;7.38;6.68;;;25.10;97.00;;;;;;5067293;28;20153;-83
2023/06/22 10:03:07;;;;;;;8.25;7.20;;;25.20;97.40;;;;;;5066471;28;20052;-83
2023/06/22 10:05:32;;;;;;;7.53;6.82;;;25.00;97.00;;;;;;5067610;28;20044;-82
2023/06/22 10:07:58;;;;;;;7.88;6.22;;;25.50;96.70;;;;;;5066995;28;20048;-84
2023/06/22 10:10:24;;;;;;;8.98;5.70;;;25.90;96.30;;;;;;5066467;28;20043;-83
2023/06/22 10:12:56;;;;;;;7.03;6.32;;;25.50;95.80;;;;;;5068538;28;20048;-83
2023/06/22 10:15:22;;;;;;;6.75;6.05;;;25.80;95.40;;;;;;5063927;28;20048;-83
2023/06/22 10:17:48;;;;;;;7.45;6.75;;;25.90;94.90;;;;;;5049422;28;20047;-82
2023/06/22 10:20:13;;;;;;;7.53;6.70;;;25.90;95.10;;;;;;5067289;28;20033;-81
2023/06/22 10:22:41;;;;;;;7.35;6.50;;;25.80;95.00;;;;;;5066467;28;20169;-82
2023/06/22 10:25:07;;;;;;;7.35;6.30;;;25.70;95.00;;;;;;5066539;28;20052;-82
2023/06/22 10:27:33;;;;;;;7.00;6.03;;;25.80;94.70;;;;;;5066661;28;20044;-82
2023/06/22 10:29:59;;;;;;;7.22;6.50;;;25.90;94.30;;;;;;5067223;28;20052;-82
2023/06/22 10:32:24;;;;;;;6.72;6.13;;;26.00;94.20;;;;;;5068556;28;20032;-82
2023/06/22 10:34:50;;;;;;;6.25;5.65;;;26.00;94.10;;;;;;5049988;28;20109;-82
2023/06/22 10:37:15;;;;;;;7.47;6.40;;;26.00;93.40;;;;;;5067884;28;20127;-81
2023/06/22 10:39:41;;;;;;;6.47;5.88;;;26.00;92.80;;;;;;5067769;28;20051;-82
2023/06/22 10:42:07;;;;;;;6.88;6.25;;;26.00;92.80;;;;;;5068224;28;20637;-82
2023/06/22 10:44:33;;;;;;;7.53;6.82;;;26.00;92.70;;;;;;5064508;28;20066;-82
2023/06/22 10:46:59;;;;;;;6.85;6.25;;;26.10;92.00;;;;;;5067387;28;20056;-81
2023/06/22 10:49:24;;;;;;;8.27;7.47;;;26.00;91.70;;;;;;5066239;28;20052;-81
2023/06/22 10:51:50;;;;;;;6.40;5.80;;;25.80;91.90;;;;;;5067759;28;20046;-84
2023/06/22 10:54:18;;;;;;;6.30;5.22;;;26.10;92.50;;;;;;5067663;28;20851;-83
2023/06/22 10:56:44;;;;;;;7.50;6.05;;;25.70;92.70;;;;;;5067424;28;20487;-83
2023/06/22 10:59:09;;;;;;;7.35;6.57;;;25.80;92.20;;;;;;5049361;28;20076;-83
2023/06/22 11:01:35;;;;;;;7.90;7.10;;;25.90;91.50;;;;;;5066595;28;20808;-83
2023/06/22 11:04:00;;;;;;;7.38;5.80;;;25.70;91.40;;;;;;5065153;28;20041;-83
2023/06/22 11:06:26;;;;;;;6.65;5.88;;;25.70;91.80;;;;;;5066237;28;20605;-82
2023/06/22 11:08:52;;;;;;;8.43;6.90;;;25.80;91.90;;;;;;5048557;28;20075;-85
2023/06/22 11:11:17;;;;;;;7.43;6.15;;;26.00;91.90;;;;;;5065378;28;20481;-85
2023/06/22 11:13:43;;;;;;;7.10;5.97;;;26.40;91.50;;;;;;5066554;28;20041;-84
2023/06/22 11:16:10;;;;;;;7.97;7.18;;;25.70;95.50;;;;;;5067771;28;20423;-85
2023/06/22 11:18:35;;;;;;;8.65;6.30;;;24.90;96.50;;;;;;5066420;28;20048;-85
2023/06/22 11:21:01;;;;;;;8.20;6.68;;;24.90;96.60;;;;;;5066124;28;20039;-86
2023/06/22 11:23:27;;;;;;;6.53;5.63;;;25.80;96.00;;;;;;5065961;28;20033;-85
2023/06/22 11:25:56;;;;;;;9.75;6.18;;;24.90;95.30;;;;;;5067614;28;20185;-86
2023/06/22 11:28:22;;;;;;;7.07;6.40;;;25.00;94.80;;;;;;5065559;28;20048;-85
2023/06/22 11:30:47;;;;;;;7.13;6.43;;;25.20;94.60;;;;;;5060279;28;20504;-85
2023/06/22 11:33:13;;;;;;;6.45;5.85;;;25.30;94.10;;;;;;5055811;28;20448;-84
2023/06/22 11:35:38;;;;;;;7.63;6.35;;;25.60;94.00;;;;;;5067860;28;20190;-85
2023/06/22 11:38:05;;;;;;;5.93;5.38;;;25.80;93.70;;;;;;5066207;28;20048;-86
2023/06/22 11:40:31;;;;;;;6.85;6.00;;;25.80;93.10;;;;;;5066712;28;20617;-84
2023/06/22 11:42:56;;;;;;;7.20;4.90;;;25.70;92.30;;;;;;5065798;28;20052;-83
2023/06/22 11:45:22;;;;;;;7.47;5.53;;;25.70;91.60;;;;;;5067145;28;20500;-82
2023/06/22 11:47:48;;;;;;;10.05;6.68;;;25.80;91.30;;;;;;5066242;28;20143;-84
2023/06/22 11:50:13;;;;;;;6.70;5.90;;;26.00;91.10;;;;;;5048317;28;20048;-84
2023/06/22 11:52:39;;;;;;;9.00;6.40;;;25.80;91.30;;;;;;5067189;28;20044;-83
2023/06/22 11:55:06;;;;;;;8.57;6.10;;;26.40;91.30;;;;;;5065767;28;20138;-83
2023/06/22 11:57:52;;;;;;;10.02;6.88;;;25.70;91.10;;;;;;5065162;28;20087;-83
2023/06/22 12:00:18;;;;;;;7.82;7.05;;;25.60;90.70;;;;;;5066279;28;20040;-85
2023/06/22 12:02:47;;;;;;;6.97;5.85;;;25.50;91.20;;;;;;5066135;28;20504;-83
2023/06/22 12:05:13;;;;;;;6.88;6.05;;;25.50;91.50;;;;;;5066616;28;20040;-84
2023/06/22 12:07:38;;;;;;;7.82;6.85;;;25.60;91.70;;;;;;5064066;28;20067;-84
2023/06/22 12:10:04;;;;;;;7.75;6.53;;;25.70;91.60;;;;;;5065967;28;20040;-85
2023/06/22 12:12:30;;;;;;;8.10;6.10;;;25.70;91.50;;;;;;5049210;28;20048;-87
2023/06/22 12:14:55;;;;;;;7.22;6.53;;;25.90;91.70;;;;;;5066936;28;20388;-84
2023/06/22 12:17:21;;;;;;;9.35;6.30;;;26.40;91.60;;;;;;5069127;28;20063;-83
2023/06/22 12:19:47;;;;;;;6.45;5.70;;;26.00;91.10;;;;;;5070641;28;20162;-84
2023/06/22 12:22:12;;;;;;;6.88;6.15;;;26.40;91.50;;;;;;5052324;28;20097;-84
2023/06/22 12:24:38;;;;;;;7.45;6.68;;;26.30;91.00;;;;;;5070763;28;20084;-86
2023/06/22 12:27:04;;;;;;;6.45;5.85;;;26.30;90.40;;;;;;5068934;28;20050;-85
2023/06/22 12:29:29;;;;;;;10.55;7.20;;;26.40;90.70;;;;;;5068041;28;20153;-86
2023/06/22 12:31:55;;;;;;;6.78;5.93;;;26.40;90.20;;;;;;5069042;28;20049;-85
2023/06/22 12:34:20;;;;;;;6.10;5.50;;;26.50;90.30;;;;;;5066625;28;20048;-86
2023/06/22 12:36:48;;;;;;;6.60;6.00;;;26.70;90.00;;;;;;5068327;28;20097;-86